Impacts TAF Board
For situational awareness. Not to be used for flight planning purposes.
IDs:

KMDW - Chicago/Midway Intl, IL, US

Issued at 0846 UTC 17 Feb 2019
Updated at 0919 UTC 17 Feb 2019
Potential Impact None Slight Moderate High
Time<<17/22Z 17/23Z 18/00Z 18/01Z 18/02Z 18/03Z 18/04Z 18/05Z 18/06Z 18/07Z 18/08Z 18/09Z 18/10Z>>
Type PRVL PRVL PRVL PRVL PRVL PRVL PRVL PRVL PRVL PRVL PRVL PRVL PRVL
VIS 1 1 1.5 1.5 1.5 1.5 1.5 4 4 4 4 4 4
CIG 10 10 10 10 10 10 10 15 15 15 15 15 15
Cover OVC OVC OVC OVC OVC OVC OVC OVC OVC OVC OVC OVC OVC
FltCat IFR IFR IFR IFR IFR IFR IFR MVFR MVFR MVFR MVFR MVFR MVFR
WX -SN -SN -SN BR -SN BR -SN BR -SN BR -SN BR -SHSN -SHSN -SHSN -SHSN -SHSN -SHSN
WDir 70 70 40 40 40 40 40 10 10 10 10 10 10
WSpd 13 13 10 10 10 10 10 10 10 10 10 10 10
WGst 19 19 -- -- -- -- -- -- -- -- -- -- --
Raw TAF
KMDW 170846Z 1709/1812 09010KT P6SM VCSH OVC019
  FM171130 08012G18KT 3SM -SHSN OVC017
  FM171600 07013G19KT 1SM -SN SCT007 OVC010
  FM180000 04010KT 1 1/2SM -SN BR OVC010
  FM180500 01010KT 4SM -SHSN BKN015 OVC025


METAR Board
Radar Display
Forecast Discussion
For situational awareness. Not to be used for flight planning purposes.